createdAt,value
2023-04-18T00:04:27.563Z,7.7
2023-04-18T00:12:40.513Z,7.6
2023-04-18T00:20:53.464Z,7.6
2023-04-18T00:29:06.404Z,7.5
2023-04-18T00:37:19.341Z,7.5
2023-04-18T00:45:32.285Z,7.4
2023-04-18T00:53:45.253Z,7.3
2023-04-18T01:01:58.175Z,7.2
2023-04-18T01:10:11.109Z,7.1
2023-04-18T01:26:36.996Z,7.1
2023-04-18T01:43:02.863Z,7.1
2023-04-18T01:51:15.798Z,7.1
2023-04-18T01:59:28.731Z,7.1
2023-04-18T02:07:41.691Z,7.1
2023-04-18T02:15:54.630Z,7.2
2023-04-18T02:24:07.579Z,7.1
2023-04-18T02:32:20.518Z,7.2
2023-04-18T02:40:33.452Z,7.2
2023-04-18T02:48:46.393Z,7.2
2023-04-18T02:56:59.330Z,7.2
2023-04-18T03:05:12.278Z,7.2
2023-04-18T03:13:25.236Z,7.2
2023-04-18T03:21:38.194Z,7.2
2023-04-18T03:29:51.221Z,7.2
2023-04-18T03:38:04.077Z,7.2
2023-04-18T03:46:17.035Z,7.2
2023-04-18T03:54:29.989Z,7.2
2023-04-18T04:02:42.917Z,7.2
2023-04-18T04:10:55.859Z,7.2
2023-04-18T04:19:08.818Z,7.1
2023-04-18T04:35:34.711Z,7.1
2023-04-18T04:43:47.678Z,7.1
2023-04-18T04:52:00.588Z,7.1
2023-04-18T05:00:13.558Z,7.2
2023-04-18T05:08:26.516Z,7.3
2023-04-18T05:16:39.463Z,7.3
2023-04-18T05:24:52.441Z,7.4
2023-04-18T05:33:05.408Z,7.6
2023-04-18T05:41:18.384Z,7.8
2023-04-18T05:49:31.392Z,8.1
2023-04-18T05:57:44.399Z,8.1
2023-04-18T06:05:57.417Z,8.1
2023-04-18T06:14:10.384Z,8
2023-04-18T06:22:23.401Z,8.1
2023-04-18T06:30:36.544Z,8.4
2023-04-18T06:38:49.450Z,8.7
2023-04-18T06:47:02.482Z,8.8
2023-04-18T06:55:15.544Z,8.8
2023-04-18T07:03:28.540Z,8.9
2023-04-18T07:11:41.636Z,9
2023-04-18T07:28:07.776Z,9.4
2023-04-18T07:44:33.873Z,10.3
2023-04-18T08:01:00.557Z,16.9
2023-04-18T08:09:13.952Z,21
2023-04-18T08:17:27.583Z,21.8
2023-04-18T08:25:41.205Z,21.4
2023-04-18T08:33:54.981Z,21.5
2023-04-18T08:42:08.823Z,23.1
2023-04-18T08:50:22.605Z,25.5
2023-04-18T08:58:36.511Z,23.3
2023-04-18T09:06:50.138Z,23.2
2023-04-18T09:15:03.829Z,24.3
2023-04-18T09:23:17.494Z,23.8
2023-04-18T09:31:31.220Z,23.1
2023-04-18T09:39:45.115Z,23
2023-04-18T09:47:59.326Z,21.4
2023-04-18T09:56:13.553Z,20
2023-04-18T10:04:27.721Z,18.6
2023-04-18T10:12:41.968Z,18.1
2023-04-18T10:20:56.371Z,18.6
2023-04-18T10:29:10.702Z,18.1
2023-04-18T10:37:25.114Z,17.2
2023-04-18T10:53:54.243Z,17
2023-04-18T11:02:08.752Z,16.9
2023-04-18T11:10:23.301Z,17.2
2023-04-18T11:18:37.803Z,18.8
2023-04-18T11:26:52.373Z,19.9
2023-04-18T11:35:06.966Z,20.6
2023-04-18T11:43:21.595Z,18
2023-04-18T11:51:36.009Z,17.2
2023-04-18T11:59:50.036Z,17.3
2023-04-18T12:08:03.704Z,17
2023-04-18T12:16:17.370Z,17.3
2023-04-18T12:24:30.928Z,16.8
2023-04-18T12:32:44.463Z,16.9
2023-04-18T12:40:57.960Z,16.9
2023-04-18T12:49:11.443Z,16.7
2023-04-18T12:57:24.897Z,16.5
2023-04-18T13:05:38.271Z,16.1
2023-04-18T13:13:51.652Z,16.3
2023-04-18T13:22:05.013Z,16.1
2023-04-18T13:30:18.353Z,16.2
2023-04-18T13:46:44.963Z,16.4
2023-04-18T14:03:11.537Z,16.6
2023-04-18T14:11:24.818Z,16.4
2023-04-18T14:27:51.405Z,16.6
2023-04-18T14:36:04.700Z,16.6
2023-04-18T14:44:17.962Z,16.8
2023-04-18T14:52:31.256Z,16.5
2023-04-18T15:00:44.533Z,16.7
2023-04-18T15:08:57.805Z,16.8
2023-04-18T15:17:11.077Z,16.8
2023-04-18T15:25:24.341Z,16.6
2023-04-18T21:49:43.928Z,11.4
2023-04-18T22:06:04.247Z,11.1
2023-04-18T22:14:19.536Z,11.1
2023-04-18T22:22:34.668Z,11
2023-04-18T22:30:49.981Z,10.9
2023-04-18T22:39:05.210Z,10.8
2023-04-18T22:47:20.476Z,10.7
2023-04-18T22:55:35.701Z,10.6
2023-04-18T23:03:50.842Z,10.6
2023-04-18T23:12:06.055Z,10.6
2023-04-18T23:20:21.274Z,10.5
2023-04-18T23:28:36.483Z,10.4
2023-04-18T23:36:51.700Z,10.4
2023-04-18T23:45:06.922Z,10.2
2023-04-18T23:53:22.151Z,10.2
